Airfield :
LOGIN :

Register | Disclaimer

   EN    FR    IT 

 










Legend :    VFR   Marginal VFR   IFR   Intensive IFR   Very Intensive IFR
Visi :
Ceiling :
>= 8 km
>= 3000ft
5 to 8 km
1000 to 3000 ft
1500m to 5 km
500 to 1000 ft
800 to 1500m
200 to 500 ft
< 800m
< 200 ft
Symbols :   Thunderstorms  Fog  Heavy snow  Heavy precipitations  Wind > 20 kt
SIGMETs :     Misc.  Thunderstorms  Icing  Turbulence  Mountain Waves  Volcanic Ashes






- Airport Elevation : 580 ft


LFOA - Avord

CURRENT METAR :
  • 221500Z AUTO 13004KT 100V160 CAVOK 28/16 Q1008 TEMPO VRB20G50KT 2000 TSRA BKN060CB

EXPIRED METARs :
  • 221430Z AUTO 11005KT 060V180 CAVOK 28/16 Q1009 TEMPO VRB20G50KT 2000 TSRA BKN060CB
  • 221400Z AUTO VRB05KT CAVOK 28/16 Q1009 TEMPO VRB20G40KT 2000 TSRA BKN060CB
  • 221330Z AUTO 11004KT 050V150 CAVOK 28/16 Q1010 TEMPO VRB20G40KT 2000 TSRA BKN060CB
  • 221300Z AUTO 13006KT 070V170 CAVOK 27/16 Q1010 NOSIG
  • 221230Z AUTO 12011KT 080V150 CAVOK 27/16 Q1010 NOSIG
  • 221200Z AUTO 12014KT CAVOK 26/15 Q1010 NOSIG

TAF TAF LFOA
Valid from the 22 at 15:00 until the 23 at 15:00 UTC


221400Z 2215/2315 11005KT CAVOK TX30/2215Z TN16/2305Z
TEMPO 2215/2305 15015G30KT 4000 SHRA BKN070CB
PROB40
TEMPO 2215/2224 VRB20G40KT 2000 TSRA BKN060CB
PROB30
TEMPO 2216/2222 VRB20G50KT TSRAGR
BECMG 2305/2307 21010G20KT BKN010
TEMPO 2307/2313 21015G30KT SHRA BKN020CB



MET'MAP, your aeronautical weather chart ! - Copyright ORBIFLY December 2007 - Disclaimer

ORBIFLY MET'MAP TEAM :

Programming & Development : Alexandra Zaïnal
Original concept : Baudouin d'Aumeries
Technical & hardware support : Manuel Goepfert
Assistance : Marc-Olivier Méhu

Contact : metmap@orbifly.com




SOURCES & CREDITS :

   NOAA